Georgetown, TX (78628)

4:23 PM CDT on October 25, 2014 (GMT -0500)
Hwy 29 West Georgetown | Change Station
CLOSE
Current Station
Personal Weather Station
Location: Georgetown, TX
Elevation: 863 ft
Nearby Weather Stations

Elev 863 ft 30.64 °N, 97.75 °W | Updated 12 seconds ago

Clear
Clear
85.1 °F
Feels Like 86 °F
N
0.0
Wind Variable Wind from North
Gusts 0.0 mph

Today
High -- | Low -- °F
--% Chance of Precip.
Yesterday
High -- | Low -- °F
Precip. -- in
7:40 AM 6:49 PM
Waxing Crescent, 4% visible
Pressure 30.09 in
Visibility 10.0 miles
Clouds Clear
Heat Index 86 °F
Dew Point 64 °F
Humidity 49%
Rainfall 0.00 in
Snow Depth Not available.
UV 4 out of 12
Pollen 5.50 out of 12
Ozone Good
PM2.5 Good
Flu Activity Local Activity
METAR KGTU 252050Z VRB05KT 10SM SKC 30/15 A3009

More Conditions Fewer Conditions

Pressure 30.09 in
Visibility 10.0 miles
Clouds Clear
Heat Index 86 °F
Dew Point 64 °F
Humidity 49%
Rainfall 0.00 in
Snow Depth Not available.
UV 4 out of 12
Pollen 5.50 out of 12
Ozone Good
PM2.5 Good
Flu Activity Local Activity
METAR KGTU 252050Z VRB05KT 10SM SKC 30/15 A3009

More Conditions Fewer Conditions

10-Day Weather Forecast

Almanac

Astronomy

Oct. 25, 2014 Rise Set
Actual Time 7:40 AM CDT 6:49 PM CDT
Civil Twilight 7:15 AM CDT 7:13 PM CDT
Nautical Twilight 6:47 AM CDT 7:41 PM CDT
Astronomical Twilight 6:19 AM CDT 8:09 PM CDT
Moon 9:15 AM CDT 8:19 PM CDT
Length of Visible Light 11h 57m
Length of Day
11h 08m
Tomorrow will be 1m 42s shorter.
Waxing Crescent, 4% of the Moon is Illuminated
Today
Waxing Crescent
Oct 30
First Quarter
Nov 6
Full
Nov 14
Last Quarter
Nov 22
New

Today's Extremes

State Highs State Lows

Community

WunderPhotos

Upload Photos

1,765,001 photos uploaded!

Nearby

Air Quality

  Air Quality AQ Index Pollutant
Yesterday Moderate
OZONE
Yesterday Moderate
PM2.5
Current Good
OZONE
Current Good
PM2.5
Saturday Moderate
OZONE
Saturday Good
PM10
Sunday Moderate
OZONE
Sunday Good
PM10
Monday Good
OZONE
Monday Good
PM10
Tuesday Good
OZONE
Tuesday Good
PM10

Snow Depth

Station Depth Elevation
No new snow has been reported.

Earthquake Activity

City Distance Mag. Time & Date
No recent earthquake activity has been reported nearby.
Minimum magnitude displayed is 2.5.

Coastal Water Temperatures

Place Temperature
No Stations Reporting

Nearby Weather Stations